Time;durP1;ratioP1;P1;durP2;ratioP2;P2;SDS_P1;SDS_P2;PMS_P1;PMS_P2;Temp;Humidity;BMP_temperature;BMP_pressure;BME280_temperature;BME280_humidity;BME280_pressure;Samples;Min_cycle;Max_cycle;Signal;HPM_P1;HPM_P2
2024/03/07 00:02:24;;;;;;;15.95;2.80;;;;;;;;;;5111057;28;20751;-34
2024/03/07 00:04:51;;;;;;;17.55;2.97;;;;;;;;;;5106815;28;20114;-35
2024/03/07 00:07:18;;;;;;;14.38;2.63;;;;;;;;;;5096929;28;20028;-32
2024/03/07 00:09:46;;;;;;;23.38;3.08;;;;;;;;;;5110714;28;20035;-33
2024/03/07 00:12:13;;;;;;;18.40;2.90;;;;;;;;;;5114196;28;20116;-31
2024/03/07 00:14:40;;;;;;;13.10;2.42;;;;;;;;;;5101221;28;20454;-33
2024/03/07 00:17:07;;;;;;;23.77;3.25;;;;;;;;;;5108622;28;20038;-29
2024/03/07 00:19:34;;;;;;;15.05;2.50;;;;;;;;;;5106473;28;20039;-28
2024/03/07 00:22:01;;;;;;;18.70;2.72;;;;;;;;;;5098844;28;20104;-27
2024/03/07 00:24:28;;;;;;;16.25;3.00;;;;;;;;;;5105067;28;20092;-35
2024/03/07 00:26:56;;;;;;;16.23;2.55;;;;;;;;;;5110475;28;20019;-28
2024/03/07 00:29:25;;;;;;;15.27;2.95;;;;;;;;;;5100640;28;20044;-34
2024/03/07 00:31:53;;;;;;;19.52;2.85;;;;;;;;;;5109055;28;20034;-30
2024/03/07 00:34:23;;;;;;;20.98;2.72;;;;;;;;;;5113884;28;20035;-27
2024/03/07 00:36:51;;;;;;;26.42;3.38;;;;;;;;;;5113964;28;20478;-30
2024/03/07 00:39:19;;;;;;;20.02;2.53;;;;;;;;;;5113006;28;20093;-28
2024/03/07 00:41:46;;;;;;;27.33;3.58;;;;;;;;;;5110881;27;20114;-29
2024/03/07 00:44:13;;;;;;;22.63;3.30;;;;;;;;;;5113346;28;20038;-34
2024/03/07 00:46:40;;;;;;;17.58;3.33;;;;;;;;;;5111040;28;20028;-27
2024/03/07 00:49:07;;;;;;;23.60;3.65;;;;;;;;;;5107994;28;20525;-30
2024/03/07 00:51:35;;;;;;;28.48;3.38;;;;;;;;;;5113376;28;20486;-28
2024/03/07 00:54:02;;;;;;;23.30;3.42;;;;;;;;;;5113608;28;20034;-27
2024/03/07 00:56:29;;;;;;;13.57;2.70;;;;;;;;;;5113493;28;20035;-34
2024/03/07 00:58:56;;;;;;;21.83;3.75;;;;;;;;;;5113811;28;20027;-26
2024/03/07 01:01:23;;;;;;;17.23;3.20;;;;;;;;;;5107844;28;20231;-32
2024/03/07 01:03:51;;;;;;;25.23;3.33;;;;;;;;;;5110598;28;20416;-27
2024/03/07 01:06:20;;;;;;;18.30;3.25;;;;;;;;;;5113126;28;20042;-29
2024/03/07 01:08:47;;;;;;;12.93;2.30;;;;;;;;;;5120566;27;20024;-35
2024/03/07 01:11:14;;;;;;;17.80;2.38;;;;;;;;;;5096923;28;20032;-31
2024/03/07 01:13:41;;;;;;;20.55;3.22;;;;;;;;;;5102848;28;20024;-27
2024/03/07 01:16:08;;;;;;;14.23;2.53;;;;;;;;;;5112507;28;20106;-27
2024/03/07 01:18:35;;;;;;;15.63;2.60;;;;;;;;;;5076822;28;20036;-32
2024/03/07 01:21:02;;;;;;;16.52;2.97;;;;;;;;;;5103467;28;20028;-30
2024/03/07 01:23:30;;;;;;;9.15;2.45;;;;;;;;;;5095485;28;20101;-33
2024/03/07 01:25:58;;;;;;;11.13;2.70;;;;;;;;;;5110065;28;20043;-35
2024/03/07 01:28:25;;;;;;;21.48;3.88;;;;;;;;;;5112144;28;20776;-29
2024/03/07 01:30:52;;;;;;;18.02;3.20;;;;;;;;;;5098907;28;20031;-33
2024/03/07 01:33:20;;;;;;;18.95;3.22;;;;;;;;;;5113075;28;20020;-27
2024/03/07 01:35:47;;;;;;;15.95;2.92;;;;;;;;;;5112582;28;20089;-27
2024/03/07 01:38:14;;;;;;;15.50;2.97;;;;;;;;;;5113041;28;20066;-35
2024/03/07 01:40:42;;;;;;;18.30;2.97;;;;;;;;;;5112091;28;20024;-27
2024/03/07 01:43:10;;;;;;;20.00;2.83;;;;;;;;;;5112787;28;20402;-27
2024/03/07 01:45:37;;;;;;;16.33;2.90;;;;;;;;;;5112038;28;20126;-31
2024/03/07 01:51:17;;;;;;;10.27;1.88;;;;;;;;;;5105907;28;20046;-36
2024/03/07 01:53:45;;;;;;;9.38;2.20;;;;;;;;;;5108838;28;20036;-27
2024/03/07 01:56:12;;;;;;;8.52;1.92;;;;;;;;;;5101473;28;20047;-29
2024/03/07 01:58:40;;;;;;;17.27;2.92;;;;;;;;;;5110163;28;20019;-27
2024/03/07 02:01:07;;;;;;;11.02;2.00;;;;;;;;;;5098907;28;20081;-26
2024/03/07 02:03:36;;;;;;;17.30;2.33;;;;;;;;;;5116645;27;20050;-27
2024/03/07 02:06:03;;;;;;;14.68;2.33;;;;;;;;;;5108672;28;20039;-32
2024/03/07 02:08:31;;;;;;;12.48;2.15;;;;;;;;;;5090528;28;20077;-26
2024/03/07 02:10:59;;;;;;;16.02;2.63;;;;;;;;;;5099656;28;20063;-31
2024/03/07 02:13:26;;;;;;;16.23;2.15;;;;;;;;;;5092182;28;20099;-26
2024/03/07 02:15:53;;;;;;;9.70;2.33;;;;;;;;;;5092128;28;20032;-34
2024/03/07 02:18:21;;;;;;;8.88;2.10;;;;;;;;;;5094592;28;20102;-31
2024/03/07 02:20:48;;;;;;;16.60;2.30;;;;;;;;;;5100698;28;20032;-30
2024/03/07 02:23:15;;;;;;;17.20;2.55;;;;;;;;;;5097728;28;20063;-31
2024/03/07 02:25:42;;;;;;;14.65;2.13;;;;;;;;;;5095859;28;20055;-32
2024/03/07 02:28:09;;;;;;;13.85;2.50;;;;;;;;;;5102286;28;20032;-31
2024/03/07 02:30:36;;;;;;;6.32;1.60;;;;;;;;;;5097788;28;20028;-27
2024/03/07 02:33:06;;;;;;;9.98;2.25;;;;;;;;;;5097167;28;20110;-27
2024/03/07 02:35:35;;;;;;;10.98;2.13;;;;;;;;;;5102042;28;20031;-33
2024/03/07 02:38:03;;;;;;;7.63;1.52;;;;;;;;;;5098465;28;20139;-34
2024/03/07 02:40:30;;;;;;;10.43;1.80;;;;;;;;;;5092295;28;20131;-27
2024/03/07 02:42:57;;;;;;;7.50;1.50;;;;;;;;;;5092100;28;20027;-32
2024/03/07 02:45:25;;;;;;;8.65;1.88;;;;;;;;;;5092149;28;20521;-27
2024/03/07 02:47:53;;;;;;;11.73;2.08;;;;;;;;;;5092091;28;20031;-31
2024/03/07 02:50:22;;;;;;;7.93;2.17;;;;;;;;;;5097380;28;20061;-27
2024/03/07 02:52:50;;;;;;;7.65;1.98;;;;;;;;;;5099133;28;20035;-27
2024/03/07 02:55:18;;;;;;;8.32;1.80;;;;;;;;;;5102934;28;20110;-27
2024/03/07 02:57:46;;;;;;;8.02;1.77;;;;;;;;;;5099729;28;20024;-34
2024/03/07 03:00:19;;;;;;;10.43;1.88;;;;;;;;;;5100678;28;20043;-34
2024/03/07 03:02:47;;;;;;;13.00;1.80;;;;;;;;;;5100452;28;20071;-32
2024/03/07 03:05:15;;;;;;;4.50;1.60;;;;;;;;;;5100655;28;20032;-34
2024/03/07 03:07:42;;;;;;;7.03;1.50;;;;;;;;;;5101816;28;20083;-30
2024/03/07 03:10:09;;;;;;;8.82;1.65;;;;;;;;;;5100959;28;20028;-30
2024/03/07 03:12:40;;;;;;;14.70;1.80;;;;;;;;;;5100265;28;20110;-28
2024/03/07 03:15:09;;;;;;;10.50;1.95;;;;;;;;;;5100580;28;20036;-32
2024/03/07 03:17:36;;;;;;;7.68;1.73;;;;;;;;;;5099897;28;20094;-33
2024/03/07 03:20:15;;;;;;;10.82;1.95;;;;;;;;;;5102034;28;20031;-34
2024/03/07 03:22:43;;;;;;;10.68;2.10;;;;;;;;;;5101824;28;20474;-36
2024/03/07 03:25:10;;;;;;;14.15;1.80;;;;;;;;;;5100864;28;20052;-28
2024/03/07 03:27:38;;;;;;;9.50;1.77;;;;;;;;;;5099939;28;20020;-31
2024/03/07 03:30:06;;;;;;;7.20;1.77;;;;;;;;;;5100122;28;20102;-27
2024/03/07 03:32:33;;;;;;;14.93;1.85;;;;;;;;;;5100029;28;20030;-28
2024/03/07 03:35:00;;;;;;;10.65;2.10;;;;;;;;;;5096702;28;20343;-27
2024/03/07 03:37:27;;;;;;;10.88;1.98;;;;;;;;;;5092222;28;20533;-32
2024/03/07 03:39:54;;;;;;;11.98;2.28;;;;;;;;;;5101803;28;20067;-34
2024/03/07 03:42:21;;;;;;;8.85;1.55;;;;;;;;;;5099704;28;20390;-27
2024/03/07 03:44:49;;;;;;;11.13;1.80;;;;;;;;;;5102627;28;20405;-29
2024/03/07 03:47:16;;;;;;;8.88;2.03;;;;;;;;;;5105829;28;20443;-33
2024/03/07 03:49:43;;;;;;;11.95;2.03;;;;;;;;;;5100372;28;20496;-27
2024/03/07 03:52:10;;;;;;;7.35;1.58;;;;;;;;;;5095052;28;20043;-27
2024/03/07 03:54:37;;;;;;;14.25;1.75;;;;;;;;;;5095032;28;20093;-29
2024/03/07 03:57:05;;;;;;;10.82;1.90;;;;;;;;;;5094977;28;20107;-30
2024/03/07 03:59:32;;;;;;;10.68;2.28;;;;;;;;;;5095095;28;20034;-27
2024/03/07 04:01:59;;;;;;;7.45;1.73;;;;;;;;;;5094887;28;20115;-27
2024/03/07 04:04:27;;;;;;;7.00;1.95;;;;;;;;;;5094786;28;20082;-27
2024/03/07 04:06:54;;;;;;;9.52;2.03;;;;;;;;;;5094841;28;20032;-27
2024/03/07 04:09:21;;;;;;;8.68;2.13;;;;;;;;;;5094815;28;20043;-29
2024/03/07 04:11:47;;;;;;;11.90;1.90;;;;;;;;;;5094632;28;20028;-27
2024/03/07 04:14:14;;;;;;;14.02;1.60;;;;;;;;;;5094679;28;20103;-27
2024/03/07 04:16:41;;;;;;;8.88;1.63;;;;;;;;;;5094638;28;20039;-29
2024/03/07 04:19:09;;;;;;;11.90;1.90;;;;;;;;;;5094488;28;20031;-27
2024/03/07 04:21:37;;;;;;;7.95;1.90;;;;;;;;;;5094438;28;20024;-27
2024/03/07 04:24:04;;;;;;;8.27;1.88;;;;;;;;;;5094280;28;20092;-27
2024/03/07 04:26:31;;;;;;;9.90;1.90;;;;;;;;;;5094289;28;20055;-27
2024/03/07 04:28:58;;;;;;;6.82;1.58;;;;;;;;;;5094557;28;20036;-27
2024/03/07 04:31:26;;;;;;;11.70;1.75;;;;;;;;;;5094060;28;20495;-28
2024/03/07 04:33:53;;;;;;;8.88;1.35;;;;;;;;;;5094189;28;20044;-26
2024/03/07 04:36:20;;;;;;;7.13;1.75;;;;;;;;;;5094315;28;20035;-29
2024/03/07 04:38:47;;;;;;;10.30;1.73;;;;;;;;;;5094086;28;20397;-28
2024/03/07 04:41:17;;;;;;;11.43;1.60;;;;;;;;;;5094006;28;20102;-27
2024/03/07 04:43:43;;;;;;;10.43;1.88;;;;;;;;;;5094023;28;20032;-29
2024/03/07 04:46:10;;;;;;;10.18;1.60;;;;;;;;;;5093988;28;20031;-27
2024/03/07 04:48:37;;;;;;;8.95;1.75;;;;;;;;;;5093988;28;20089;-27
2024/03/07 04:51:04;;;;;;;8.50;1.98;;;;;;;;;;5093651;28;20412;-27
2024/03/07 04:53:31;;;;;;;9.93;1.95;;;;;;;;;;5093950;28;20036;-27
2024/03/07 04:56:01;;;;;;;5.85;1.60;;;;;;;;;;5092684;28;20028;-28
2024/03/07 04:58:28;;;;;;;11.98;1.83;;;;;;;;;;5093884;28;20032;-27
2024/03/07 05:00:55;;;;;;;9.50;1.83;;;;;;;;;;5093719;28;20501;-27
2024/03/07 05:03:22;;;;;;;6.07;1.55;;;;;;;;;;5093762;28;20028;-27
2024/03/07 05:05:48;;;;;;;9.10;1.60;;;;;;;;;;5093688;28;20069;-28
2024/03/07 05:08:16;;;;;;;10.00;2.08;;;;;;;;;;5093661;28;20115;-27
2024/03/07 05:10:43;;;;;;;11.68;1.75;;;;;;;;;;5093270;28;20038;-27
2024/03/07 05:13:10;;;;;;;11.82;1.90;;;;;;;;;;5093508;28;20099;-27
2024/03/07 05:15:37;;;;;;;13.55;2.08;;;;;;;;;;5093589;28;20012;-27
2024/03/07 05:18:04;;;;;;;9.43;2.17;;;;;;;;;;5093483;28;20059;-27
2024/03/07 05:20:31;;;;;;;10.10;2.22;;;;;;;;;;5093343;28;20091;-27
2024/03/07 05:22:58;;;;;;;9.50;1.50;;;;;;;;;;5093233;28;20056;-27
2024/03/07 05:25:26;;;;;;;8.25;1.60;;;;;;;;;;5093079;28;20056;-27
2024/03/07 05:27:54;;;;;;;6.88;1.65;;;;;;;;;;5093421;28;20066;-27
2024/03/07 05:30:23;;;;;;;9.18;1.70;;;;;;;;;;5093345;28;20027;-29
2024/03/07 05:32:50;;;;;;;7.72;1.80;;;;;;;;;;5092975;28;20387;-28
2024/03/07 05:35:17;;;;;;;10.65;1.80;;;;;;;;;;5093130;28;20027;-28
2024/03/07 05:37:46;;;;;;;10.95;1.92;;;;;;;;;;5093125;28;20028;-29
2024/03/07 05:40:14;;;;;;;10.15;1.95;;;;;;;;;;5092945;28;20038;-27
2024/03/07 05:42:41;;;;;;;6.93;1.33;;;;;;;;;;5092961;28;20016;-31
2024/03/07 05:45:08;;;;;;;9.55;1.77;;;;;;;;;;5092848;28;20028;-28
2024/03/07 05:47:36;;;;;;;7.47;1.73;;;;;;;;;;5092903;28;20091;-27
2024/03/07 05:50:03;;;;;;;5.97;1.50;;;;;;;;;;5092857;28;20039;-27
2024/03/07 05:52:30;;;;;;;6.60;1.60;;;;;;;;;;5092769;28;20095;-27
2024/03/07 05:54:57;;;;;;;6.88;1.92;;;;;;;;;;5092780;28;20039;-28
2024/03/07 05:57:25;;;;;;;9.48;1.70;;;;;;;;;;5092701;28;20032;-28
2024/03/07 05:59:52;;;;;;;8.40;1.92;;;;;;;;;;5092569;28;20028;-27
2024/03/07 06:02:20;;;;;;;8.57;1.70;;;;;;;;;;5091275;28;20378;-36
2024/03/07 06:04:47;;;;;;;8.60;1.65;;;;;;;;;;5092325;28;20028;-35
2024/03/07 06:07:14;;;;;;;10.52;1.73;;;;;;;;;;5092185;28;20046;-30
2024/03/07 06:09:43;;;;;;;11.20;1.95;;;;;;;;;;5092526;28;20048;-29
2024/03/07 06:12:10;;;;;;;7.10;1.55;;;;;;;;;;5092224;28;20036;-29
2024/03/07 06:14:37;;;;;;;13.30;1.63;;;;;;;;;;5092310;28;20107;-27
2024/03/07 06:17:04;;;;;;;7.28;1.67;;;;;;;;;;5092338;28;20024;-27
2024/03/07 06:19:31;;;;;;;8.77;1.60;;;;;;;;;;5092358;28;20028;-27
2024/03/07 06:21:58;;;;;;;7.03;1.77;;;;;;;;;;5092207;28;20020;-26
2024/03/07 06:24:27;;;;;;;11.90;1.85;;;;;;;;;;5092187;28;20036;-27
2024/03/07 06:27:03;;;;;;;8.85;1.38;;;;;;;;;;5071957;28;20054;-26
2024/03/07 06:29:30;;;;;;;9.00;1.95;;;;;;;;;;5071770;28;20115;-27
2024/03/07 06:31:58;;;;;;;8.73;2.13;;;;;;;;;;5053722;28;20426;-28
2024/03/07 06:34:27;;;;;;;9.55;1.90;;;;;;;;;;5071581;28;20032;-28
2024/03/07 06:36:55;;;;;;;7.60;1.55;;;;;;;;;;5071902;28;20036;-31
2024/03/07 06:39:22;;;;;;;7.30;1.77;;;;;;;;;;5071551;28;20031;-30
2024/03/07 06:41:49;;;;;;;12.25;2.58;;;;;;;;;;5071609;28;20028;-34
2024/03/07 06:44:17;;;;;;;7.30;1.67;;;;;;;;;;5071626;28;20505;-31
2024/03/07 06:46:45;;;;;;;9.00;1.70;;;;;;;;;;5071580;28;20036;-31
2024/03/07 06:49:12;;;;;;;10.85;1.80;;;;;;;;;;5071399;28;20398;-31
2024/03/07 06:51:39;;;;;;;9.07;1.90;;;;;;;;;;5071555;28;20031;-32
2024/03/07 06:54:06;;;;;;;8.23;2.05;;;;;;;;;;5071688;28;20036;-31
2024/03/07 06:56:33;;;;;;;7.75;2.08;;;;;;;;;;5071613;28;20020;-34
2024/03/07 06:59:04;;;;;;;8.80;1.92;;;;;;;;;;5071593;28;20025;-35
2024/03/07 07:01:31;;;;;;;5.40;1.45;;;;;;;;;;5071311;28;20098;-35
2024/03/07 07:03:58;;;;;;;7.53;2.03;;;;;;;;;;5071327;28;20041;-30
2024/03/07 07:06:26;;;;;;;10.88;1.67;;;;;;;;;;5071369;28;20031;-34
2024/03/07 07:08:53;;;;;;;8.00;1.70;;;;;;;;;;5071375;28;20478;-33
2024/03/07 07:11:19;;;;;;;8.27;1.67;;;;;;;;;;5071269;28;20028;-32
2024/03/07 07:13:46;;;;;;;11.57;2.13;;;;;;;;;;5071405;28;20029;-32
2024/03/07 07:16:13;;;;;;;9.57;1.88;;;;;;;;;;5071223;28;20023;-29
2024/03/07 07:18:40;;;;;;;8.23;1.52;;;;;;;;;;5071483;28;20115;-34
2024/03/07 07:21:10;;;;;;;11.18;1.80;;;;;;;;;;5075371;28;20024;-33
2024/03/07 07:23:37;;;;;;;5.50;1.45;;;;;;;;;;5075200;28;20097;-30
2024/03/07 07:26:05;;;;;;;9.25;1.63;;;;;;;;;;5075182;28;20052;-30
2024/03/07 07:28:33;;;;;;;13.10;1.80;;;;;;;;;;5075347;28;20031;-34
2024/03/07 07:31:00;;;;;;;7.13;1.50;;;;;;;;;;5057127;28;20108;-34
2024/03/07 07:33:27;;;;;;;7.22;1.60;;;;;;;;;;5075247;28;20141;-30
2024/03/07 07:35:53;;;;;;;5.22;1.55;;;;;;;;;;5075210;28;20477;-32
2024/03/07 07:38:20;;;;;;;5.88;1.42;;;;;;;;;;5075200;28;20032;-33
2024/03/07 07:40:47;;;;;;;11.57;1.45;;;;;;;;;;5075019;28;20021;-30
2024/03/07 07:43:14;;;;;;;6.80;1.60;;;;;;;;;;5074896;28;20106;-34
2024/03/07 07:45:42;;;;;;;9.00;1.80;;;;;;;;;;5074965;28;20035;-30
2024/03/07 07:48:11;;;;;;;7.88;1.45;;;;;;;;;;5074897;28;20021;-30
2024/03/07 07:50:38;;;;;;;12.07;1.70;;;;;;;;;;5074672;28;20067;-36
2024/03/07 07:53:08;;;;;;;11.32;1.80;;;;;;;;;;5074824;28;20813;-30
2024/03/07 07:55:36;;;;;;;10.95;2.00;;;;;;;;;;5074549;28;20032;-32
2024/03/07 07:58:06;;;;;;;5.90;1.30;;;;;;;;;;5074770;28;20027;-30
2024/03/07 08:00:34;;;;;;;14.68;2.42;;;;;;;;;;5074635;28;20021;-35
2024/03/07 08:03:07;;;;;;;7.35;1.33;;;;;;;;;;5074469;28;20044;-31
2024/03/07 08:05:35;;;;;;;5.10;1.48;;;;;;;;;;5074360;28;20418;-31
2024/03/07 08:08:07;;;;;;;7.78;1.83;;;;;;;;;;5074414;28;20052;-33
2024/03/07 08:10:37;;;;;;;7.78;1.45;;;;;;;;;;5074430;28;20023;-34
2024/03/07 08:13:13;;;;;;;13.63;1.90;;;;;;;;;;5074497;28;20048;-33
2024/03/07 08:15:40;;;;;;;4.25;1.30;;;;;;;;;;5074376;28;20032;-34
2024/03/07 08:18:10;;;;;;;8.38;1.77;;;;;;;;;;5074308;28;20016;-30
2024/03/07 08:20:37;;;;;;;6.85;1.60;;;;;;;;;;5074085;28;20386;-31
2024/03/07 08:23:04;;;;;;;8.63;1.73;;;;;;;;;;5074212;28;20036;-31
2024/03/07 08:25:31;;;;;;;6.43;1.42;;;;;;;;;;5082793;28;20048;-32
2024/03/07 08:27:58;;;;;;;5.88;1.38;;;;;;;;;;5094410;28;20106;-32
2024/03/07 08:30:27;;;;;;;9.15;1.80;;;;;;;;;;5094035;28;20024;-32
2024/03/07 08:32:55;;;;;;;6.38;1.50;;;;;;;;;;5094235;28;20030;-33
2024/03/07 08:35:23;;;;;;;8.15;1.70;;;;;;;;;;5094323;28;20355;-32
2024/03/07 08:37:54;;;;;;;7.15;1.30;;;;;;;;;;5094399;28;20016;-34
2024/03/07 08:40:22;;;;;;;9.13;1.83;;;;;;;;;;5094126;28;20016;-30
2024/03/07 08:42:53;;;;;;;7.35;1.75;;;;;;;;;;5094097;28;20492;-31
2024/03/07 08:45:20;;;;;;;11.77;1.95;;;;;;;;;;5094035;28;20123;-32
2024/03/07 08:47:48;;;;;;;6.80;1.48;;;;;;;;;;5094133;28;20095;-33
2024/03/07 08:50:17;;;;;;;9.60;2.00;;;;;;;;;;5093926;28;20390;-34
2024/03/07 08:52:45;;;;;;;10.63;2.10;;;;;;;;;;5093899;28;20028;-31
2024/03/07 08:55:16;;;;;;;8.65;1.88;;;;;;;;;;5093871;28;20031;-33
2024/03/07 08:57:45;;;;;;;7.93;1.65;;;;;;;;;;5093955;28;20091;-33
2024/03/07 09:00:22;;;;;;;10.70;2.33;;;;;;;;;;5094544;28;20724;-28
2024/03/07 09:02:53;;;;;;;11.43;1.80;;;;;;;;;;5113925;28;20024;-31
2024/03/07 09:05:21;;;;;;;8.93;1.52;;;;;;;;;;5114078;28;20027;-31
2024/03/07 09:07:49;;;;;;;8.30;1.60;;;;;;;;;;5113804;28;20034;-31
2024/03/07 09:10:20;;;;;;;7.60;1.67;;;;;;;;;;5113536;28;20023;-29
2024/03/07 09:12:51;;;;;;;7.38;1.38;;;;;;;;;;5113411;28;20530;-33
2024/03/07 09:15:21;;;;;;;13.30;1.90;;;;;;;;;;5113535;28;20529;-28
2024/03/07 09:17:48;;;;;;;9.95;1.70;;;;;;;;;;5113570;28;20028;-29
2024/03/07 09:20:15;;;;;;;7.78;1.80;;;;;;;;;;5113242;28;20355;-34
2024/03/07 09:22:43;;;;;;;8.05;1.90;;;;;;;;;;5113807;28;20038;-35
2024/03/07 09:25:10;;;;;;;13.05;2.15;;;;;;;;;;5113096;28;20078;-31
2024/03/07 09:27:40;;;;;;;7.97;1.40;;;;;;;;;;5113184;28;20031;-29
2024/03/07 09:30:11;;;;;;;10.10;1.75;;;;;;;;;;5112959;28;20035;-31
2024/03/07 09:32:48;;;;;;;7.90;1.40;;;;;;;;;;5113071;28;20035;-28
2024/03/07 09:35:16;;;;;;;11.80;1.77;;;;;;;;;;5111135;28;20948;-28
2024/03/07 09:37:45;;;;;;;9.90;1.92;;;;;;;;;;5102507;28;20127;-30
2024/03/07 09:40:12;;;;;;;12.25;2.22;;;;;;;;;;5112057;28;20068;-30
2024/03/07 09:42:47;;;;;;;9.02;2.20;;;;;;;;;;5110598;28;20051;-34
2024/03/07 09:45:16;;;;;;;9.98;2.05;;;;;;;;;;5111739;28;20044;-34
2024/03/07 09:47:46;;;;;;;14.13;1.80;;;;;;;;;;5112560;28;20032;-31
2024/03/07 09:50:13;;;;;;;16.48;2.00;;;;;;;;;;5112784;28;20102;-34
2024/03/07 09:52:42;;;;;;;10.27;2.20;;;;;;;;;;5112959;28;20035;-33
2024/03/07 09:55:09;;;;;;;15.07;2.65;;;;;;;;;;5113113;28;20432;-34
2024/03/07 09:57:36;;;;;;;9.35;2.13;;;;;;;;;;5113124;28;20020;-34
2024/03/07 10:00:04;;;;;;;9.98;1.88;;;;;;;;;;5113038;28;20027;-32
2024/03/07 10:02:33;;;;;;;10.00;2.38;;;;;;;;;;5113033;28;20016;-34
2024/03/07 10:05:01;;;;;;;11.48;2.50;;;;;;;;;;5112906;28;20084;-34
2024/03/07 10:07:29;;;;;;;9.68;1.83;;;;;;;;;;5112760;28;20043;-32
2024/03/07 10:09:59;;;;;;;11.73;2.33;;;;;;;;;;5112805;28;20023;-34
2024/03/07 10:12:26;;;;;;;8.70;2.08;;;;;;;;;;5112672;28;20035;-32
2024/03/07 10:14:57;;;;;;;9.55;2.13;;;;;;;;;;5112640;28;20074;-32
2024/03/07 10:17:27;;;;;;;12.55;2.20;;;;;;;;;;5112190;28;20020;-32
2024/03/07 10:19:54;;;;;;;8.82;2.20;;;;;;;;;;5107314;28;20161;-27
2024/03/07 10:22:22;;;;;;;10.00;2.25;;;;;;;;;;5111581;28;20126;-38
2024/03/07 10:24:52;;;;;;;11.80;2.13;;;;;;;;;;5111498;28;20608;-30
2024/03/07 10:27:23;;;;;;;12.10;2.30;;;;;;;;;;5109794;28;20394;-29
2024/03/07 10:29:53;;;;;;;9.50;2.17;;;;;;;;;;5107869;28;20625;-27
2024/03/07 10:32:23;;;;;;;8.63;1.90;;;;;;;;;;5111701;28;20473;-33
2024/03/07 10:34:54;;;;;;;13.48;2.17;;;;;;;;;;5111143;28;20032;-28
2024/03/07 10:37:21;;;;;;;10.18;2.28;;;;;;;;;;5110598;28;20023;-29
2024/03/07 10:39:52;;;;;;;9.57;2.35;;;;;;;;;;5112153;28;20027;-28
2024/03/07 10:42:24;;;;;;;14.20;2.15;;;;;;;;;;5111867;28;20133;-30
2024/03/07 10:44:51;;;;;;;7.72;2.08;;;;;;;;;;5108406;28;20430;-31
2024/03/07 10:47:21;;;;;;;12.73;2.40;;;;;;;;;;5103709;28;20093;-28
2024/03/07 10:49:54;;;;;;;13.20;2.22;;;;;;;;;;5104843;28;20020;-33
2024/03/07 10:52:45;;;;;;;13.20;2.38;;;;;;;;;;5111297;28;20026;-27
2024/03/07 10:55:12;;;;;;;9.40;2.28;;;;;;;;;;5100435;28;20050;-33
2024/03/07 10:57:45;;;;;;;9.40;2.40;;;;;;;;;;5112033;28;20024;-36
2024/03/07 11:03:20;;;;;;;20.77;3.38;;;;;;;;;;5068501;28;20414;-36
2024/03/07 11:05:48;;;;;;;15.25;3.22;;;;;;;;;;5068920;28;20434;-30
2024/03/07 11:08:16;;;;;;;16.15;2.80;;;;;;;;;;5090120;28;20089;-28
2024/03/07 11:10:43;;;;;;;16.83;3.20;;;;;;;;;;5111918;28;20024;-26
2024/03/07 11:13:12;;;;;;;21.00;3.35;;;;;;;;;;5111934;28;20020;-29
2024/03/07 11:15:41;;;;;;;17.90;3.03;;;;;;;;;;5111229;28;20032;-28
2024/03/07 11:18:09;;;;;;;27.63;3.30;;;;;;;;;;5111852;28;20027;-28
2024/03/07 11:20:37;;;;;;;21.35;3.80;;;;;;;;;;5111972;28;20128;-28
2024/03/07 11:23:23;;;;;;;27.30;5.07;;;;;;;;;;5111742;28;20160;-29
2024/03/07 11:25:50;;;;;;;24.92;3.33;;;;;;;;;;5111678;28;20048;-27
2024/03/07 11:28:20;;;;;;;22.63;3.53;;;;;;;;;;5111771;28;20035;-28
2024/03/07 11:30:47;;;;;;;16.00;2.95;;;;;;;;;;5111748;28;20024;-29
2024/03/07 11:33:17;;;;;;;25.50;3.53;;;;;;;;;;5111790;28;20035;-27
2024/03/07 11:35:49;;;;;;;13.77;2.63;;;;;;;;;;5111610;28;20043;-27
2024/03/07 11:38:16;;;;;;;22.17;3.50;;;;;;;;;;5111744;28;20027;-29
2024/03/07 11:40:43;;;;;;;32.38;4.88;;;;;;;;;;5111747;28;20106;-28
2024/03/07 11:43:12;;;;;;;35.67;4.93;;;;;;;;;;5111646;28;20042;-29
2024/03/07 11:45:44;;;;;;;31.00;4.68;;;;;;;;;;5111680;28;20042;-29
2024/03/07 11:48:11;;;;;;;16.27;3.92;;;;;;;;;;5111620;28;20452;-27
2024/03/07 11:50:38;;;;;;;23.92;3.35;;;;;;;;;;5111519;28;20043;-29
2024/03/07 11:53:06;;;;;;;19.17;3.50;;;;;;;;;;5110949;28;20035;-27
2024/03/07 11:55:47;;;;;;;20.55;3.00;;;;;;;;;;5111583;28;20059;-27
2024/03/07 11:58:24;;;;;;;14.55;2.60;;;;;;;;;;5111401;28;20034;-27
2024/03/07 12:00:51;;;;;;;14.35;2.83;;;;;;;;;;5111404;28;20024;-27
2024/03/07 12:03:25;;;;;;;21.92;3.40;;;;;;;;;;5111318;28;20120;-28
2024/03/07 12:05:52;;;;;;;24.90;3.25;;;;;;;;;;5113253;28;20058;-27
2024/03/07 12:08:22;;;;;;;14.85;3.00;;;;;;;;;;5115225;28;20027;-26
2024/03/07 12:10:53;;;;;;;21.48;3.33;;;;;;;;;;5115045;28;20102;-28
2024/03/07 12:13:21;;;;;;;20.33;3.25;;;;;;;;;;5114914;28;20046;-28
2024/03/07 12:15:48;;;;;;;28.60;4.00;;;;;;;;;;5113640;28;20106;-32
2024/03/07 12:18:17;;;;;;;36.80;4.72;;;;;;;;;;5108412;28;20466;-27
2024/03/07 12:20:54;;;;;;;23.55;3.45;;;;;;;;;;5113708;28;20024;-37
2024/03/07 12:23:25;;;;;;;16.20;2.88;;;;;;;;;;5109243;28;20089;-35
2024/03/07 12:26:02;;;;;;;18.30;3.50;;;;;;;;;;5114086;28;20413;-35
2024/03/07 12:28:33;;;;;;;24.90;3.25;;;;;;;;;;5114878;28;20669;-32
2024/03/07 12:31:04;;;;;;;15.05;2.63;;;;;;;;;;5114568;28;20032;-33
2024/03/07 12:33:38;;;;;;;15.65;3.20;;;;;;;;;;5114592;28;20115;-33
2024/03/07 12:36:09;;;;;;;12.18;2.75;;;;;;;;;;5114530;28;20523;-35
2024/03/07 12:38:39;;;;;;;15.27;2.83;;;;;;;;;;5113353;28;20098;-26
2024/03/07 12:41:13;;;;;;;20.40;3.03;;;;;;;;;;5107949;28;20390;-35
2024/03/07 12:43:45;;;;;;;14.95;3.33;;;;;;;;;;5114416;28;20035;-36
2024/03/07 12:46:13;;;;;;;15.55;3.03;;;;;;;;;;5114353;28;20036;-30
2024/03/07 12:48:40;;;;;;;15.55;2.90;;;;;;;;;;5114227;28;20423;-30
2024/03/07 12:51:07;;;;;;;13.77;3.00;;;;;;;;;;5114307;28;20031;-33
2024/03/07 12:53:34;;;;;;;13.82;2.85;;;;;;;;;;5114457;28;20378;-30
2024/03/07 12:56:03;;;;;;;19.83;2.80;;;;;;;;;;5114186;28;20028;-35
2024/03/07 12:58:30;;;;;;;17.63;3.00;;;;;;;;;;5114242;28;20126;-32
2024/03/07 13:00:58;;;;;;;19.50;3.05;;;;;;;;;;5114049;28;20039;-34
2024/03/07 13:03:31;;;;;;;11.77;3.13;;;;;;;;;;5114143;28;20125;-35
2024/03/07 13:06:01;;;;;;;21.60;3.80;;;;;;;;;;5114071;28;20062;-33
2024/03/07 13:08:31;;;;;;;18.02;3.35;;;;;;;;;;5114119;28;20019;-33
2024/03/07 13:11:02;;;;;;;13.02;3.50;;;;;;;;;;5113939;28;20023;-35
2024/03/07 13:13:28;;;;;;;18.80;3.40;;;;;;;;;;5113986;28;20081;-32
2024/03/07 13:15:55;;;;;;;17.45;3.60;;;;;;;;;;5113872;28;20104;-33
2024/03/07 13:18:23;;;;;;;14.63;2.95;;;;;;;;;;5113055;28;20053;-33
2024/03/07 13:20:50;;;;;;;14.40;3.05;;;;;;;;;;5113804;28;20031;-32
2024/03/07 13:23:17;;;;;;;27.05;3.33;;;;;;;;;;5113776;28;20020;-32
2024/03/07 13:25:44;;;;;;;15.65;3.50;;;;;;;;;;5113550;28;20085;-32
2024/03/07 13:28:24;;;;;;;15.10;3.28;;;;;;;;;;5113559;28;20485;-33
2024/03/07 13:30:54;;;;;;;17.83;3.42;;;;;;;;;;5113465;28;20482;-34
2024/03/07 13:33:23;;;;;;;22.33;3.75;;;;;;;;;;5113493;28;20107;-35
2024/03/07 13:35:51;;;;;;;14.48;2.90;;;;;;;;;;5113443;28;20032;-32
2024/03/07 13:38:18;;;;;;;18.45;3.75;;;;;;;;;;5113363;28;20039;-36
2024/03/07 13:40:45;;;;;;;11.07;3.10;;;;;;;;;;5113272;28;20030;-33
2024/03/07 13:43:12;;;;;;;15.73;3.30;;;;;;;;;;5113389;28;20116;-34
2024/03/07 13:45:40;;;;;;;17.60;3.20;;;;;;;;;;5113369;28;20034;-32
2024/03/07 13:48:09;;;;;;;9.35;2.75;;;;;;;;;;5113209;28;20036;-34
2024/03/07 13:50:45;;;;;;;16.02;3.10;;;;;;;;;;5113171;28;20028;-30
2024/03/07 13:53:28;;;;;;;14.48;2.95;;;;;;;;;;5113242;28;20105;-37
2024/03/07 13:56:02;;;;;;;15.95;3.05;;;;;;;;;;5113328;28;20405;-39
2024/03/07 13:58:35;;;;;;;13.13;3.22;;;;;;;;;;5113078;28;20023;-36
2024/03/07 14:01:04;;;;;;;12.50;2.92;;;;;;;;;;5112884;28;20028;-34
2024/03/07 14:03:52;;;;;;;13.63;2.22;;;;;;;;;;5112958;28;20061;-36
2024/03/07 14:06:55;;;;;;;13.00;2.97;;;;;;;;;;5112993;28;20024;-36
2024/03/07 14:09:44;;;;;;;17.92;2.90;;;;;;;;;;5050045;28;20043;-33
2024/03/07 14:12:30;;;;;;;11.15;2.30;;;;;;;;;;5103651;28;20077;-32
2024/03/07 14:15:00;;;;;;;12.40;2.75;;;;;;;;;;5112743;28;20027;-35
2024/03/07 14:17:46;;;;;;;15.30;2.65;;;;;;;;;;5112471;28;20038;-35
2024/03/07 14:20:31;;;;;;;11.20;2.60;;;;;;;;;;5112681;28;20114;-29
2024/03/07 14:23:16;;;;;;;9.45;2.97;;;;;;;;;;5112672;28;20509;-34
2024/03/07 14:25:55;;;;;;;12.63;2.40;;;;;;;;;;5112453;28;20497;-36
2024/03/07 14:28:28;;;;;;;8.60;2.90;;;;;;;;;;5112274;28;20038;-33
2024/03/07 14:30:57;;;;;;;9.85;2.38;;;;;;;;;;5112393;28;20023;-30
2024/03/07 14:33:27;;;;;;;12.02;2.70;;;;;;;;;;5112530;28;20036;-31
2024/03/07 14:36:01;;;;;;;7.57;2.13;;;;;;;;;;5112473;28;20038;-31
2024/03/07 14:38:30;;;;;;;15.00;2.70;;;;;;;;;;5112399;28;20101;-36
2024/03/07 14:40:58;;;;;;;9.50;2.70;;;;;;;;;;5112265;28;20020;-33
2024/03/07 14:43:25;;;;;;;15.48;2.47;;;;;;;;;;5112277;28;20046;-34
2024/03/07 14:45:55;;;;;;;11.38;2.65;;;;;;;;;;5112308;28;20057;-34
2024/03/07 14:48:22;;;;;;;8.10;2.63;;;;;;;;;;5112172;28;20032;-30
2024/03/07 14:50:49;;;;;;;7.00;2.67;;;;;;;;;;5112111;28;20032;-31
2024/03/07 14:53:20;;;;;;;8.75;2.35;;;;;;;;;;5112228;28;20497;-31